Time;durP1;ratioP1;P1;durP2;ratioP2;P2;SDS_P1;SDS_P2;PMS_P1;PMS_P2;Temp;Humidity;BMP_temperature;BMP_pressure;BME280_temperature;BME280_humidity;BME280_pressure;Samples;Min_cycle;Max_cycle;Signal;HPM_P1;HPM_P2
2022/06/09 00:01:23;;;;;;;62.25;17.05;;;;;;;10.15;100.00;100692.78;10515350;28;20036;-78
2022/06/09 00:06:25;;;;;;;20.17;8.90;;;;;;;10.18;100.00;100700.75;10522062;28;20044;-78
2022/06/09 00:11:26;;;;;;;16.00;8.98;;;;;;;10.13;100.00;100702.25;10517696;28;20036;-79
2022/06/09 00:16:26;;;;;;;18.80;8.90;;;;;;;10.16;100.00;100706.75;10527985;28;20032;-78
2022/06/09 00:21:27;;;;;;;16.30;8.05;;;;;;;10.04;100.00;100707.97;10495956;28;20120;-79
2022/06/09 00:26:28;;;;;;;15.57;8.88;;;;;;;10.14;100.00;100714.53;10499343;28;20123;-78
2022/06/09 00:31:28;;;;;;;29.73;10.05;;;;;;;10.27;100.00;100711.66;10495045;28;20123;-78
2022/06/09 00:36:29;;;;;;;17.88;10.15;;;;;;;10.35;100.00;100708.50;10485033;28;20047;-78
2022/06/09 00:41:30;;;;;;;14.93;7.75;;;;;;;10.28;100.00;100709.94;10493162;28;20149;-78
2022/06/09 00:46:38;;;;;;;15.95;6.88;;;;;;;10.26;100.00;100714.22;10468069;28;20036;-78
2022/06/09 00:51:41;;;;;;;16.70;10.10;;;;;;;10.30;100.00;100721.38;10517662;28;20032;-78
2022/06/09 00:56:46;;;;;;;17.40;8.30;;;;;;;10.26;100.00;100720.31;10447727;28;20057;-79
2022/06/09 01:01:46;;;;;;;24.88;9.18;;;;;;;10.35;100.00;100717.25;10501435;28;20487;-78
2022/06/09 01:06:53;;;;;;;17.05;7.93;;;;;;;10.45;100.00;100722.94;10525722;28;20043;-78
2022/06/09 01:11:54;;;;;;;21.17;9.00;;;;;;;10.45;100.00;100723.81;10493484;28;20039;-78
2022/06/09 01:17:01;;;;;;;23.90;11.13;;;;;;;10.48;100.00;100723.97;10484593;28;20039;-79
2022/06/09 01:22:28;;;;;;;24.45;9.88;;;;;;;10.55;100.00;100730.38;10518208;28;20525;-78
2022/06/09 01:27:29;;;;;;;30.13;10.07;;;;;;;10.52;100.00;100728.50;10527361;28;20081;-79
2022/06/09 01:32:33;;;;;;;22.42;9.63;;;;;;;10.65;100.00;100731.69;10485236;28;20093;-78
2022/06/09 01:37:42;;;;;;;25.30;9.40;;;;;;;10.63;100.00;100733.34;10466358;28;20032;-79
2022/06/09 01:42:45;;;;;;;23.30;9.93;;;;;;;10.57;100.00;100736.59;10522748;28;20407;-78
2022/06/09 01:47:48;;;;;;;25.17;8.57;;;;;;;10.44;100.00;100732.50;10508840;28;20377;-78
2022/06/09 01:52:49;;;;;;;22.98;9.68;;;;;;;10.38;100.00;100738.31;10484745;28;20493;-78
2022/06/09 01:57:51;;;;;;;28.77;11.32;;;;;;;10.29;100.00;100746.63;10487231;28;20032;-78
2022/06/09 02:02:56;;;;;;;;;;;;;;;10.35;100.00;100755.56;10485586;28;20146;-80
2022/06/09 02:07:58;;;;;;;27.52;10.18;;;;;;;10.51;100.00;100760.72;10510273;28;19920;-78
2022/06/09 02:13:05;;;;;;;20.07;7.87;;;;;;;10.53;100.00;100768.66;10523396;28;20040;-79
2022/06/09 02:18:08;;;;;;;21.35;9.13;;;;;;;10.58;100.00;100773.28;10517626;28;20519;-78
2022/06/09 02:23:12;;;;;;;28.70;10.88;;;;;;;10.40;100.00;100775.94;10487636;28;20182;-78
2022/06/09 02:28:13;;;;;;;23.38;10.45;;;;;;;10.30;100.00;100786.78;10523931;28;20031;-78
2022/06/09 02:33:13;;;;;;;33.53;13.70;;;;;;;10.23;100.00;100789.91;10465603;28;20460;-78
2022/06/09 02:38:14;;;;;;;35.30;11.35;;;;;;;10.20;100.00;100789.78;10448893;28;20028;-78
2022/06/09 02:43:14;;;;;;;30.20;11.35;;;;;;;10.09;100.00;100798.00;10486306;28;20101;-78
2022/06/09 02:48:16;;;;;;;23.20;9.52;;;;;;;9.94;100.00;100799.88;10473574;28;20063;-78
2022/06/09 02:53:17;;;;;;;28.00;11.43;;;;;;;9.88;100.00;100804.78;10530153;28;20040;-78
2022/06/09 02:58:17;;;;;;;34.90;13.18;;;;;;;10.02;100.00;100803.75;10527038;28;20040;-78
2022/06/09 03:03:18;;;;;;;41.67;12.45;;;;;;;9.96;100.00;100816.53;10490536;28;20032;-78
2022/06/09 03:08:18;;;;;;;16.83;9.93;;;;;;;9.90;100.00;100811.88;10493567;28;20036;-78
2022/06/09 03:13:19;;;;;;;27.33;11.63;;;;;;;9.86;100.00;100823.00;10495888;28;20036;-78
2022/06/09 03:18:19;;;;;;;36.17;12.63;;;;;;;9.74;100.00;100825.00;10505896;28;20390;-79
2022/06/09 03:23:20;;;;;;;25.15;11.68;;;;;;;9.71;100.00;100830.97;10446672;28;20045;-79
2022/06/09 03:28:20;;;;;;;32.92;11.40;;;;;;;9.78;100.00;100840.94;10492032;28;20052;-79
2022/06/09 03:33:21;;;;;;;34.15;13.50;;;;;;;9.80;100.00;100838.38;10511220;28;20060;-80
2022/06/09 03:38:22;;;;;;;46.03;15.15;;;;;;;9.85;100.00;100849.97;10510490;28;20028;-78
2022/06/09 03:43:22;;;;;;;34.97;12.05;;;;;;;9.85;100.00;100868.25;10524184;28;20123;-79
2022/06/09 03:48:23;;;;;;;58.05;19.35;;;;;;;10.09;100.00;100862.47;10489369;28;20044;-77
2022/06/09 03:53:23;;;;;;;36.88;16.50;;;;;;;10.24;100.00;100863.22;10491833;28;20036;-75
2022/06/09 03:58:24;;;;;;;39.13;13.93;;;;;;;10.34;100.00;100864.56;10510773;28;20480;-76
2022/06/09 04:03:25;;;;;;;32.83;13.70;;;;;;;10.34;100.00;100868.91;10521688;28;20086;-76
2022/06/09 04:08:25;;;;;;;75.82;30.52;;;;;;;10.47;100.00;100871.31;10492049;28;20040;-77
2022/06/09 04:13:26;;;;;;;58.95;20.95;;;;;;;10.54;100.00;100881.25;10482112;28;20115;-75
2022/06/09 04:18:27;;;;;;;48.95;19.95;;;;;;;10.54;100.00;100890.84;10501463;28;20557;-78
2022/06/09 04:23:27;;;;;;;42.58;16.60;;;;;;;10.55;100.00;100890.91;10483229;28;20048;-78
2022/06/09 04:28:28;;;;;;;36.88;17.60;;;;;;;10.49;100.00;100893.22;10443202;28;20504;-76
2022/06/09 04:33:28;;;;;;;37.70;18.67;;;;;;;10.55;100.00;100903.09;10469283;28;20045;-75
2022/06/09 04:38:29;;;;;;;50.83;16.83;;;;;;;10.57;100.00;100906.69;10485659;28;20109;-76
2022/06/09 04:43:30;;;;;;;51.22;17.80;;;;;;;10.74;100.00;100909.22;10485734;28;20029;-77
2022/06/09 04:48:31;;;;;;;40.05;15.40;;;;;;;10.70;100.00;100910.78;10485221;28;20161;-77
2022/06/09 04:53:32;;;;;;;49.15;17.05;;;;;;;10.89;100.00;100928.28;10466793;28;20488;-76
2022/06/09 04:58:33;;;;;;;38.85;14.68;;;;;;;11.21;100.00;100921.03;10484282;28;20036;-77
2022/06/09 05:03:34;;;;;;;37.78;14.88;;;;;;;11.55;100.00;100933.03;10503762;28;20539;-76
2022/06/09 05:08:34;;;;;;;37.33;15.43;;;;;;;11.93;100.00;100950.38;10503643;28;20111;-76
2022/06/09 05:13:35;;;;;;;36.30;12.55;;;;;;;12.38;100.00;100954.91;10483181;28;20385;-77
2022/06/09 05:18:36;;;;;;;35.22;12.85;;;;;;;12.88;100.00;100965.69;10505474;28;20387;-76
2022/06/09 05:23:36;;;;;;;29.15;12.13;;;;;;;12.69;100.00;100966.69;10504953;28;20037;-76
2022/06/09 05:28:37;;;;;;;25.63;9.90;;;;;;;12.48;100.00;100968.50;10484314;28;20486;-76
2022/06/09 05:33:37;;;;;;;31.42;11.38;;;;;;;12.14;100.00;100984.53;10483868;28;20595;-76
2022/06/09 05:49:17;;;;;;;38.08;14.32;;;;;;;11.82;100.00;101000.63;10467558;28;20504;-76
2022/06/09 05:54:18;;;;;;;30.42;14.48;;;;;;;12.33;100.00;101015.97;10449146;28;20032;-75
2022/06/09 05:59:19;;;;;;;31.27;13.90;;;;;;;12.86;100.00;101018.16;10483314;28;20040;-75
2022/06/09 06:04:19;;;;;;;34.50;13.73;;;;;;;13.70;98.22;101020.53;10501634;28;20132;-76
2022/06/09 06:09:23;;;;;;;28.00;14.43;;;;;;;13.44;94.43;101023.97;10482458;28;20136;-75
2022/06/09 06:14:24;;;;;;;41.88;17.17;;;;;;;13.44;97.81;101037.09;10481643;28;20060;-79
2022/06/09 06:19:25;;;;;;;35.78;15.30;;;;;;;14.97;91.85;101051.28;10499381;28;20043;-77
2022/06/09 06:24:25;;;;;;;37.92;14.00;;;;;;;15.26;86.20;101057.47;10501828;28;20119;-75
2022/06/09 06:29:27;;;;;;;27.42;12.85;;;;;;;15.26;85.81;101054.84;10502697;28;20164;-75
2022/06/09 06:34:28;;;;;;;25.87;12.93;;;;;;;16.04;84.05;101062.44;10487600;28;20024;-75
2022/06/09 06:39:29;;;;;;;29.53;16.77;;;;;;;17.87;78.82;101066.03;10491214;28;20506;-75
2022/06/09 06:44:29;;;;;;;18.60;11.85;;;;;;;18.02;73.65;101069.03;10489409;28;20124;-77
2022/06/09 06:49:30;;;;;;;24.37;9.77;;;;;;;19.07;70.03;101075.34;10491333;28;20495;-76
2022/06/09 06:54:30;;;;;;;19.30;10.80;;;;;;;19.36;67.07;101080.19;10488695;28;20039;-75
2022/06/09 06:59:32;;;;;;;23.40;11.60;;;;;;;19.25;68.77;101095.06;10488752;28;20058;-76
2022/06/09 07:04:32;;;;;;;18.80;9.05;;;;;;;20.42;65.61;101094.84;10473282;28;20075;-74
2022/06/09 07:09:33;;;;;;;19.23;9.60;;;;;;;19.48;65.78;101102.47;10472620;28;20568;-75
2022/06/09 07:14:34;;;;;;;18.40;8.67;;;;;;;18.49;68.50;101115.84;10489734;28;20036;-75
2022/06/09 07:19:34;;;;;;;20.07;10.97;;;;;;;16.80;77.32;101116.41;10487930;28;20028;-75
2022/06/09 07:24:35;;;;;;;15.95;11.80;;;;;;;16.49;77.93;101116.50;10489949;28;20040;-75
2022/06/09 07:29:35;;;;;;;25.98;11.52;;;;;;;17.02;77.66;101125.84;10488768;28;20468;-75
2022/06/09 07:34:36;;;;;;;19.42;10.63;;;;;;;18.03;75.65;101130.81;10487083;28;20112;-75
2022/06/09 07:39:37;;;;;;;21.27;12.18;;;;;;;18.91;70.13;101131.63;10489698;28;20033;-75
2022/06/09 07:44:37;;;;;;;15.30;9.65;;;;;;;18.78;69.00;101125.22;10488830;28;20179;-76
2022/06/09 07:49:38;;;;;;;23.77;12.88;;;;;;;17.63;72.45;101146.69;10488712;28;20036;-75
2022/06/09 07:54:38;;;;;;;18.02;11.68;;;;;;;17.99;73.90;101153.69;10489289;28;20080;-75
2022/06/09 07:59:39;;;;;;;23.90;10.18;;;;;;;20.52;64.58;101146.34;10505373;28;20042;-74
2022/06/09 08:04:39;;;;;;;17.17;12.20;;;;;;;19.36;65.88;101151.84;10518479;28;20491;-75
2022/06/09 08:09:40;;;;;;;20.25;12.68;;;;;;;18.20;69.81;101166.50;10486122;28;20427;-75
2022/06/09 08:14:40;;;;;;;18.23;11.43;;;;;;;17.69;70.41;101157.44;10487981;28;20056;-75
2022/06/09 08:19:42;;;;;;;13.07;8.65;;;;;;;17.98;71.51;101175.72;10487069;28;20127;-75
2022/06/09 08:24:43;;;;;;;17.00;10.20;;;;;;;18.57;68.69;101176.97;10502434;28;20067;-75
2022/06/09 08:29:43;;;;;;;14.65;9.30;;;;;;;18.53;67.49;101182.16;10469141;28;20113;-75
2022/06/09 08:34:44;;;;;;;14.85;8.80;;;;;;;19.03;69.93;101184.91;10486639;28;20124;-75
2022/06/09 08:39:44;;;;;;;17.70;10.15;;;;;;;21.44;63.22;101187.13;10485918;28;20500;-75
2022/06/09 08:44:56;;;;;;;9.10;6.67;;;;;;;21.10;61.13;101193.94;10486479;28;20040;-76
2022/06/09 08:50:05;;;;;;;11.35;6.38;;;;;;;22.06;57.54;101200.88;10485831;28;20036;-75
2022/06/09 08:55:33;;;;;;;11.90;5.75;;;;;;;20.68;59.63;101213.88;10486096;28;20042;-76
2022/06/09 09:00:38;;;;;;;9.00;4.95;;;;;;;19.12;62.80;101223.97;10485348;28;20472;-75
2022/06/09 09:05:51;;;;;;;21.45;7.82;;;;;;;17.89;67.55;101228.47;10475926;28;20507;-75
2022/06/09 09:11:09;;;;;;;11.45;7.80;;;;;;;17.44;69.84;101235.31;10527162;28;20131;-75
2022/06/09 09:16:20;;;;;;;12.45;5.32;;;;;;;18.59;69.66;101230.00;10489876;28;20068;-75
2022/06/09 09:21:39;;;;;;;9.88;4.13;;;;;;;22.05;59.69;101225.75;10485105;28;20090;-75
2022/06/09 09:26:51;;;;;;;8.35;4.70;;;;;;;25.87;48.80;101219.69;10499814;28;20043;-76
2022/06/09 09:32:03;;;;;;;11.57;5.90;;;;;;;22.71;52.36;101242.09;10485436;28;20097;-75
2022/06/09 09:37:38;;;;;;;11.52;6.35;;;;;;;22.05;58.20;101241.72;10450327;28;20063;-76
2022/06/09 09:42:42;;;;;;;10.43;4.72;;;;;;;21.67;56.39;101248.59;10468837;28;20484;-73
2022/06/09 09:47:50;;;;;;;12.98;6.72;;;;;;;19.41;61.80;101258.09;10466747;28;20028;-73
2022/06/09 09:53:01;;;;;;;11.68;5.57;;;;;;;17.29;70.57;101278.16;10499277;28;20041;-72
2022/06/09 09:58:18;;;;;;;13.32;7.45;;;;;;;16.27;78.98;101277.00;10466788;28;20039;-72
2022/06/09 10:09:14;;;;;;;16.38;8.93;;;;;;;16.27;83.98;101298.13;10468392;28;20036;-76
2022/06/09 10:14:38;;;;;;;15.32;9.23;;;;;;;16.88;83.16;101298.19;10455161;28;20041;-76
2022/06/09 10:19:39;;;;;;;12.05;8.18;;;;;;;17.58;81.29;101297.41;10463175;28;20142;-75
2022/06/09 10:24:46;;;;;;;13.48;7.35;;;;;;;18.29;80.29;101295.63;10449036;28;20135;-75
2022/06/09 10:29:51;;;;;;;12.15;7.55;;;;;;;18.96;72.18;101299.66;10481943;28;20049;-76
2022/06/09 10:35:00;;;;;;;15.05;8.10;;;;;;;19.45;71.09;101289.13;10487762;28;20445;-76
2022/06/09 10:40:05;;;;;;;11.85;7.63;;;;;;;19.70;69.74;101297.53;10485871;28;20040;-76
2022/06/09 10:45:15;;;;;;;14.70;9.18;;;;;;;19.57;70.56;101314.09;10485511;28;20051;-75
2022/06/09 10:56:04;;;;;;;13.60;6.80;;;;;;;21.07;67.34;101331.41;10481970;28;20094;-76
2022/06/09 11:01:05;;;;;;;15.25;6.80;;;;;;;21.74;62.17;101334.75;10428020;28;20052;-76
2022/06/09 11:06:06;;;;;;;12.80;7.45;;;;;;;20.20;66.27;101336.41;10413736;28;20035;-76
2022/06/09 11:11:19;;;;;;;12.30;6.95;;;;;;;18.91;71.40;101344.69;10461028;28;20043;-76
2022/06/09 11:16:29;;;;;;;10.88;6.80;;;;;;;16.58;76.32;101372.16;10489257;28;20488;-75
2022/06/09 11:21:33;;;;;;;13.23;6.10;;;;;;;14.97;80.48;101386.00;10473132;28;20029;-75
2022/06/09 11:26:52;;;;;;;6.93;4.95;;;;;;;13.82;84.66;101388.38;10471249;28;20045;-74
2022/06/09 11:32:09;;;;;;;13.93;6.47;;;;;;;13.14;90.44;101434.47;10448915;28;20045;-74
2022/06/09 11:37:28;;;;;;;9.68;5.05;;;;;;;12.80;90.77;101435.53;10445811;28;20040;-74
2022/06/09 11:42:46;;;;;;;9.10;6.95;;;;;;;12.74;93.47;101435.22;10447818;28;20037;-75
2022/06/09 11:47:46;;;;;;;8.88;7.07;;;;;;;12.77;95.60;101453.75;10445526;28;20034;-75
2022/06/09 11:52:49;;;;;;;8.85;6.90;;;;;;;12.84;96.94;101447.09;10429539;28;20037;-75
2022/06/09 11:57:50;;;;;;;13.45;9.50;;;;;;;12.93;97.43;101455.41;10444521;28;20052;-75
2022/06/09 12:03:02;;;;;;;15.75;9.18;;;;;;;13.07;98.62;101454.34;10445395;28;20041;-75
2022/06/09 12:08:14;;;;;;;;;;;;;;;13.40;98.63;101455.81;10530029;28;20422;-75
2022/06/09 12:13:16;;;;;;;16.25;9.15;;;;;;;13.91;97.74;101462.44;10490438;28;20348;-75
2022/06/09 12:18:17;;;;;;;16.38;9.68;;;;;;;14.45;97.34;101456.84;10485010;28;20114;-75
2022/06/09 12:23:27;;;;;;;15.03;11.70;;;;;;;15.10;94.66;101454.16;10486981;28;20086;-76
2022/06/09 12:28:57;;;;;;;13.55;9.57;;;;;;;15.43;91.40;101462.41;10527909;28;20044;-75
2022/06/09 12:34:10;;;;;;;11.10;9.32;;;;;;;15.85;90.36;101467.44;10516596;28;20396;-77
2022/06/09 12:39:28;;;;;;;11.20;9.60;;;;;;;16.38;87.65;101462.22;10527305;28;20502;-76
2022/06/09 12:44:38;;;;;;;14.63;9.65;;;;;;;16.97;84.54;101457.97;10481951;28;20032;-77
2022/06/09 12:49:42;;;;;;;13.90;8.63;;;;;;;16.78;83.91;101473.22;10484795;28;20044;-76
2022/06/09 12:54:42;;;;;;;8.25;5.15;;;;;;;16.58;82.22;101485.75;10477372;28;20043;-77
2022/06/09 12:59:43;;;;;;;5.68;3.88;;;;;;;16.61;80.64;101485.88;10467581;28;20471;-76
2022/06/09 13:04:54;;;;;;;4.63;3.33;;;;;;;16.59;78.48;101498.13;10502092;28;20044;-76
2022/06/09 13:10:21;;;;;;;6.30;3.42;;;;;;;16.44;80.06;101496.78;10513588;28;20036;-76
2022/06/09 13:15:40;;;;;;;9.05;5.15;;;;;;;16.35;81.45;101507.03;10454604;28;20464;-75
2022/06/09 13:20:55;;;;;;;12.82;4.95;;;;;;;16.21;83.17;101508.31;10451534;28;20044;-76
2022/06/09 13:25:56;;;;;;;5.68;4.50;;;;;;;16.03;84.77;101511.22;10471426;28;20083;-76
2022/06/09 13:30:59;;;;;;;5.50;4.15;;;;;;;16.14;85.58;101520.41;10483521;28;20048;-76
2022/06/09 13:36:19;;;;;;;6.68;4.60;;;;;;;16.54;86.58;101523.50;10501125;28;20040;-77
2022/06/09 13:41:36;;;;;;;8.98;5.72;;;;;;;16.71;83.93;101524.09;10523873;28;20052;-75
2022/06/09 13:46:39;;;;;;;9.55;4.78;;;;;;;17.37;80.15;101514.72;10482739;28;20043;-76
2022/06/09 13:52:01;;;;;;;8.27;4.82;;;;;;;18.18;78.00;101517.88;10450562;28;20086;-76
2022/06/09 13:57:01;;;;;;;8.07;4.73;;;;;;;19.01;73.58;101522.63;10480839;28;20120;-77
2022/06/09 14:02:02;;;;;;;9.35;5.25;;;;;;;19.72;71.50;101529.47;10482820;28;20041;-76
2022/06/09 14:07:02;;;;;;;13.07;4.85;;;;;;;19.72;71.29;101526.81;10483225;28;20040;-77
2022/06/09 14:12:03;;;;;;;7.70;3.25;;;;;;;20.74;67.87;101541.06;10483666;28;20549;-77
2022/06/09 14:17:04;;;;;;;11.38;7.43;;;;;;;21.49;60.72;101544.84;10480625;28;20091;-77
2022/06/09 14:22:04;;;;;;;14.55;7.35;;;;;;;20.44;61.87;101546.78;10464202;28;20075;-77
2022/06/09 14:27:05;;;;;;;7.32;3.53;;;;;;;19.71;64.91;101550.66;10478988;28;20432;-75
2022/06/09 14:32:15;;;;;;;5.32;2.88;;;;;;;19.32;65.48;101563.13;10488535;28;20126;-76
2022/06/09 14:37:15;;;;;;;8.68;4.90;;;;;;;18.75;66.51;101563.50;10493509;28;20037;-76
2022/06/09 14:42:17;;;;;;;7.85;3.55;;;;;;;18.71;64.90;101572.25;10491159;28;20064;-76
2022/06/09 14:47:22;;;;;;;8.75;3.55;;;;;;;18.76;71.09;101585.63;10490995;28;20080;-76
2022/06/09 14:52:23;;;;;;;6.75;2.92;;;;;;;18.45;69.07;101580.41;10471818;28;20439;-76
2022/06/09 14:57:23;;;;;;;10.23;3.85;;;;;;;18.46;71.12;101576.03;10488338;28;20091;-76
2022/06/09 15:02:24;;;;;;;10.13;4.68;;;;;;;18.43;70.06;101579.47;10488671;28;20070;-76
2022/06/09 15:07:24;;;;;;;10.77;5.75;;;;;;;18.45;73.71;101583.06;10487680;28;20123;-76
2022/06/09 15:12:25;;;;;;;5.60;3.22;;;;;;;18.23;74.53;101584.25;10487182;28;20120;-79
2022/06/09 15:17:25;;;;;;;22.25;5.80;;;;;;;18.04;76.12;101596.06;10486712;28;20036;-75
2022/06/09 15:22:26;;;;;;;10.13;5.18;;;;;;;17.84;74.95;101591.06;10496092;28;20036;-76
2022/06/09 15:27:26;;;;;;;21.20;15.55;;;;;;;17.62;76.96;101600.13;10505614;28;20036;-76
2022/06/09 15:32:27;;;;;;;9.90;8.32;;;;;;;17.54;76.46;101599.00;10516739;28;20046;-75
2022/06/09 15:37:28;;;;;;;11.60;6.57;;;;;;;17.69;75.94;101591.53;10517136;28;20060;-75
2022/06/09 15:42:28;;;;;;;16.23;9.50;;;;;;;17.69;76.10;101594.19;10529997;28;20475;-77
2022/06/09 15:47:29;;;;;;;9.60;5.25;;;;;;;17.63;77.78;101599.28;10526947;28;20183;-76
2022/06/09 15:52:29;;;;;;;5.45;3.88;;;;;;;17.58;76.70;101596.47;10486961;28;20100;-76
2022/06/09 15:57:30;;;;;;;7.57;3.53;;;;;;;17.58;75.77;101607.06;10485201;28;20089;-75
2022/06/09 16:02:30;;;;;;;6.82;3.28;;;;;;;17.60;74.82;101601.84;10469772;28;20036;-75
2022/06/09 16:07:31;;;;;;;9.27;4.15;;;;;;;17.81;74.20;101604.22;10485500;28;20593;-75
2022/06/09 16:12:32;;;;;;;6.15;3.10;;;;;;;18.37;76.90;101600.50;10487623;28;20060;-75
2022/06/09 16:17:35;;;;;;;7.32;3.88;;;;;;;19.15;68.13;101599.84;10484416;28;20060;-75
2022/06/09 16:22:36;;;;;;;5.65;3.92;;;;;;;19.02;70.27;101607.50;10484694;28;20041;-76
2022/06/09 16:27:37;;;;;;;8.98;3.60;;;;;;;18.81;67.95;101621.13;10468406;28;20118;-76
2022/06/09 16:32:37;;;;;;;7.07;3.70;;;;;;;18.74;69.10;101617.41;10484506;28;20043;-75
2022/06/09 16:37:38;;;;;;;6.97;4.70;;;;;;;19.11;67.90;101616.56;10485092;28;20667;-76
2022/06/09 16:42:38;;;;;;;10.55;5.25;;;;;;;19.19;69.63;101610.59;10485866;28;20048;-76
2022/06/09 16:47:39;;;;;;;10.75;4.93;;;;;;;18.82;67.69;101614.03;10485788;28;20060;-76
2022/06/09 16:52:39;;;;;;;7.95;5.65;;;;;;;18.55;69.16;101616.03;10484153;28;20093;-77
2022/06/09 16:57:41;;;;;;;10.25;7.53;;;;;;;18.18;69.23;101615.91;10484260;28;20115;-76
2022/06/09 17:02:41;;;;;;;15.13;5.22;;;;;;;18.01;70.58;101620.72;10467037;28;20636;-76
2022/06/09 17:07:42;;;;;;;7.25;3.63;;;;;;;17.95;70.25;101625.81;10482782;28;20079;-76
2022/06/09 17:12:43;;;;;;;9.93;4.35;;;;;;;17.92;68.17;101625.72;10482771;28;20508;-76
2022/06/09 17:17:43;;;;;;;12.02;7.70;;;;;;;17.85;67.71;101637.00;10498091;28;20097;-76
2022/06/09 17:22:50;;;;;;;8.73;5.28;;;;;;;17.56;66.53;101637.88;10473152;28;20071;-76
2022/06/09 17:27:51;;;;;;;14.10;4.05;;;;;;;17.40;70.12;101636.50;10491794;28;20182;-76
2022/06/09 17:32:57;;;;;;;11.93;4.30;;;;;;;17.29;68.56;101646.75;10525532;28;20040;-76
2022/06/09 17:37:58;;;;;;;8.85;4.32;;;;;;;17.05;69.29;101643.28;10525667;28;20070;-76
2022/06/09 17:42:59;;;;;;;7.60;3.60;;;;;;;16.80;71.42;101648.63;10524229;28;20032;-75
2022/06/09 17:48:00;;;;;;;8.00;5.05;;;;;;;16.57;71.26;101661.94;10522060;28;20032;-76
2022/06/09 17:53:08;;;;;;;9.27;4.30;;;;;;;16.39;73.67;101670.06;10523946;28;20039;-76
2022/06/09 17:58:20;;;;;;;6.07;3.28;;;;;;;16.26;77.46;101671.38;10507156;28;20032;-76
2022/06/09 18:03:23;;;;;;;5.65;2.88;;;;;;;15.99;78.08;101672.16;10523935;28;20093;-76
2022/06/09 18:08:35;;;;;;;8.60;3.85;;;;;;;15.75;81.48;101672.03;10522569;28;20060;-76
2022/06/09 18:13:38;;;;;;;5.82;3.42;;;;;;;15.55;84.98;101669.50;10528092;28;20028;-75
2022/06/09 18:18:39;;;;;;;10.55;4.57;;;;;;;15.26;87.57;101677.13;10531320;28;20120;-75
2022/06/09 18:23:42;;;;;;;12.27;4.50;;;;;;;14.88;90.33;101692.25;10531250;28;20040;-75
2022/06/09 18:29:10;;;;;;;8.07;4.95;;;;;;;14.72;90.49;101684.50;10532252;28;20081;-75
2022/06/09 18:34:10;;;;;;;12.40;4.87;;;;;;;14.64;91.20;101694.69;10531831;28;20045;-75
2022/06/09 18:39:11;;;;;;;7.93;3.78;;;;;;;14.77;93.16;101702.34;10529752;28;20369;-75
2022/06/09 18:44:15;;;;;;;6.95;4.30;;;;;;;14.79;92.59;101692.75;10520115;28;20139;-76
2022/06/09 18:49:15;;;;;;;8.85;4.22;;;;;;;14.57;91.34;101705.78;10497548;28;20484;-77
2022/06/09 18:54:16;;;;;;;8.68;4.65;;;;;;;14.36;92.78;101710.13;10491547;28;20031;-77
2022/06/09 18:59:16;;;;;;;8.48;5.40;;;;;;;14.13;93.20;101713.44;10490066;28;20477;-77
2022/06/09 19:04:17;;;;;;;7.10;4.75;;;;;;;13.88;94.91;101717.53;10531841;28;20073;-76
2022/06/09 19:09:19;;;;;;;10.73;5.60;;;;;;;13.72;95.86;101718.56;10529538;28;20879;-76
2022/06/09 19:14:21;;;;;;;15.27;6.00;;;;;;;13.56;97.63;101719.53;10488714;28;20036;-76
2022/06/09 19:19:21;;;;;;;12.23;6.27;;;;;;;13.31;98.56;101732.34;10513758;28;20048;-77
2022/06/09 19:24:22;;;;;;;28.45;17.08;;;;;;;13.22;99.45;101745.00;10487948;28;20530;-78
2022/06/09 19:29:22;;;;;;;27.40;19.95;;;;;;;13.03;99.73;101753.66;10489749;28;20116;-77
2022/06/09 19:34:23;;;;;;;12.18;7.03;;;;;;;12.97;100.00;101751.63;10529328;28;20040;-77
2022/06/09 19:39:23;;;;;;;13.60;7.40;;;;;;;13.01;100.00;101757.94;10529905;28;20123;-77
2022/06/09 19:44:24;;;;;;;16.75;8.38;;;;;;;13.05;100.00;101762.53;10487302;28;20538;-77
2022/06/09 19:49:25;;;;;;;12.48;7.05;;;;;;;13.11;100.00;101773.34;10509444;28;20044;-77
2022/06/09 19:54:27;;;;;;;10.48;6.72;;;;;;;13.04;100.00;101773.88;10528613;28;20450;-77
2022/06/09 19:59:27;;;;;;;10.57;6.75;;;;;;;12.86;100.00;101786.97;10527068;28;20040;-77
2022/06/09 20:04:28;;;;;;;9.80;6.90;;;;;;;12.82;100.00;101798.13;10531068;28;20468;-76
2022/06/09 20:09:28;;;;;;;15.88;9.43;;;;;;;12.81;100.00;101801.56;10526634;28;20032;-75
2022/06/09 20:14:29;;;;;;;9.10;6.93;;;;;;;12.75;100.00;101805.69;10490820;28;20395;-76
2022/06/09 20:19:30;;;;;;;11.68;8.63;;;;;;;12.63;100.00;101816.41;10528470;28;20064;-76
2022/06/09 20:24:31;;;;;;;10.03;6.43;;;;;;;12.44;100.00;101813.59;10443111;28;20037;-76
2022/06/09 20:29:31;;;;;;;8.40;6.45;;;;;;;12.26;100.00;101823.97;10444020;28;20071;-76
2022/06/09 20:34:32;;;;;;;16.02;8.23;;;;;;;12.21;100.00;101822.81;10524955;28;20093;-76
2022/06/09 20:39:32;;;;;;;8.70;7.00;;;;;;;12.15;100.00;101821.66;10527977;28;20530;-75
2022/06/09 20:44:35;;;;;;;11.73;7.47;;;;;;;12.07;100.00;101820.31;10486385;28;20038;-76
2022/06/09 20:49:35;;;;;;;;;;;;;;;11.92;100.00;101836.03;10468283;28;20042;-75
2022/06/09 20:54:36;;;;;;;14.95;8.65;;;;;;;11.70;100.00;101829.56;10496996;28;19920;-77
2022/06/09 20:59:37;;;;;;;12.55;9.20;;;;;;;11.54;100.00;101832.09;10467728;28;20029;-76
2022/06/09 21:04:38;;;;;;;14.30;9.60;;;;;;;11.41;100.00;101833.97;10510959;28;20076;-76
2022/06/09 21:09:38;;;;;;;13.77;10.02;;;;;;;11.23;100.00;101841.66;10524636;28;20132;-76
2022/06/09 21:19:58;;;;;;;14.85;10.23;;;;;;;11.00;100.00;101851.63;10527146;28;20044;-76
2022/06/09 21:24:59;;;;;;;14.60;9.65;;;;;;;11.00;100.00;101849.00;10493350;28;20044;-75
2022/06/09 21:29:59;;;;;;;24.08;11.75;;;;;;;10.99;100.00;101859.38;10487961;28;20072;-76
2022/06/09 21:35:00;;;;;;;16.58;11.52;;;;;;;10.92;100.00;101855.50;10452310;28;20055;-76
2022/06/09 21:40:00;;;;;;;12.80;10.57;;;;;;;10.69;100.00;101861.91;10448436;28;20119;-77
2022/06/09 21:45:02;;;;;;;19.58;13.35;;;;;;;10.50;100.00;101860.72;10491707;28;20131;-76
2022/06/09 21:50:03;;;;;;;20.58;13.57;;;;;;;10.55;100.00;101871.50;10495068;28;20531;-76
2022/06/09 21:55:05;;;;;;;15.07;13.00;;;;;;;10.51;100.00;101874.72;10507648;28;20039;-76
2022/06/09 22:00:13;;;;;;;22.38;14.15;;;;;;;10.48;100.00;101877.16;10495572;28;20040;-76
2022/06/09 22:05:14;;;;;;;20.70;14.43;;;;;;;10.36;100.00;101879.84;10484552;28;20396;-76
2022/06/09 22:10:17;;;;;;;21.90;15.98;;;;;;;10.21;100.00;101888.50;10493992;28;20039;-76
2022/06/09 22:15:17;;;;;;;22.35;14.75;;;;;;;10.21;100.00;101891.13;10523719;28;20063;-76
2022/06/09 22:20:24;;;;;;;29.75;17.27;;;;;;;10.24;100.00;101880.84;10495192;28;20043;-75
2022/06/09 22:25:25;;;;;;;24.08;17.75;;;;;;;10.32;100.00;101885.69;10494092;28;20170;-76
2022/06/09 22:30:27;;;;;;;25.60;17.52;;;;;;;10.39;100.00;101885.28;10469964;28;20445;-76
2022/06/09 22:35:28;;;;;;;24.75;18.30;;;;;;;10.42;100.00;101882.88;10523987;28;20506;-76
2022/06/09 22:40:31;;;;;;;24.63;17.98;;;;;;;10.40;100.00;101892.34;10515567;28;20039;-75
2022/06/09 22:45:32;;;;;;;23.35;17.15;;;;;;;10.27;100.00;101886.28;10482111;28;20032;-75
2022/06/09 22:50:33;;;;;;;23.63;16.98;;;;;;;10.25;100.00;101887.00;10490355;28;20028;-75
2022/06/09 23:00:52;;;;;;;21.48;14.65;;;;;;;10.13;100.00;101889.69;10504588;28;20400;-76
2022/06/09 23:05:53;;;;;;;33.38;17.88;;;;;;;10.14;100.00;101891.50;10489570;28;20097;-76
2022/06/09 23:10:54;;;;;;;27.77;18.42;;;;;;;10.13;100.00;101901.09;10501430;28;20115;-76
2022/06/09 23:15:54;;;;;;;22.45;17.52;;;;;;;10.05;100.00;101901.38;10488673;28;20036;-76
2022/06/09 23:20:55;;;;;;;36.95;21.67;;;;;;;9.98;100.00;101900.97;10494871;28;20052;-76
2022/06/09 23:25:58;;;;;;;26.08;19.30;;;;;;;9.95;100.00;101900.75;10487917;28;20159;-76